Portada
METAR-TAF:

METAR-TAF

Aeropuertos :

Aeropuerto de Verona-Villafranca

Verona, Italia

latitud: 45-23N, longitud: 010-52E, altitud: 67 m

Observación

El informe se hizo hace 27 minutos, a las 13:50 UTC
Viento 7 kt del oeste-suroeste, variando entre suroeste y oeste-noroeste
Temperatura 10°C
Humedad 40%
Presión 1020 hPa
Visibilidad 10 km o más
Nubes dispersas a una altura de 5000 ft

METAR: LIPX 011350Z 25007KT 220V290 9999 SCT050 10/M03 Q1020

Hora: 16:17 (14:17 UTC)

Pronóstico

El informe se hizo hace 2 horas y 18 minutos, a las 11:59 UTC
Pronóstico válido del 01 a las 12 UTC al 01 a las 21 UTC
Viento 5 kt con dirección variable
Visibilidad 10 km o más
Cielo nuboso a una altura de 4000 ft

TAF: LIPX 011159Z 0112/0121 VRB05KT 9999 BKN040

Observaciones y pronósticos meteorológicos de más de 4000 aeropuertos (mensajes METAR y TAF).

Los puntos amarillos y rojos representan las estaciones disponibles.

Ponga el ratón en el punto deseado para ver el nombre de la estación.

Haga clic para ver las observaciones y los pronósticos meteorológicos.

Para cambiar el mapa : haga clic en los botones verdes con una cruz de color negro para hacer un zoom, en el botón verde con un guión para alejar o en las flechas verdes para mapas adyacentes.


METAR-TAF: